Time;durP1;ratioP1;P1;durP2;ratioP2;P2;SDS_P1;SDS_P2;PMS_P1;PMS_P2;Temp;Humidity;BMP_temperature;BMP_pressure;BME280_temperature;BME280_humidity;BME280_pressure;Samples;Min_cycle;Max_cycle;Signal;HPM_P1;HPM_P2
2022/04/13 00:02:04;;;;;;;6.95;1.40;;;19.60;99.90;;;;;;5070348;28;20193;-71
2022/04/13 00:04:37;;;;;;;8.23;1.30;;;19.50;99.90;;;;;;5072508;28;20201;-74
2022/04/13 00:07:08;;;;;;;8.75;1.50;;;19.50;99.90;;;;;;5070468;28;20201;-72
2022/04/13 00:09:41;;;;;;;3.40;1.38;;;19.50;99.90;;;;;;5071587;28;20216;-73
2022/04/13 00:12:12;;;;;;;5.25;1.50;;;19.50;99.90;;;;;;5062944;28;20273;-73
2022/04/13 00:14:43;;;;;;;9.10;1.50;;;19.50;99.90;;;;;;5072609;28;20197;-71
2022/04/13 00:17:14;;;;;;;5.38;1.20;;;19.60;99.90;;;;;;5072823;28;20204;-72
2022/04/13 00:19:46;;;;;;;6.60;1.40;;;19.60;99.90;;;;;;5065266;28;20201;-73
2022/04/13 00:22:17;;;;;;;2.55;1.10;;;19.60;99.90;;;;;;5067009;28;20201;-74
2022/04/13 00:24:48;;;;;;;4.10;1.15;;;19.60;99.90;;;;;;5067894;28;20632;-73
2022/04/13 00:27:18;;;;;;;3.15;1.00;;;19.60;99.90;;;;;;5064401;28;20201;-77
2022/04/13 00:29:49;;;;;;;4.32;1.10;;;19.70;99.90;;;;;;5072640;28;20225;-72
2022/04/13 00:32:20;;;;;;;2.78;1.08;;;19.80;99.90;;;;;;5073227;28;20193;-72
2022/04/13 00:34:52;;;;;;;3.50;0.82;;;19.80;99.90;;;;;;5074235;28;20189;-71
2022/04/13 00:37:23;;;;;;;4.70;1.10;;;20.00;99.90;;;;;;5074234;28;20604;-73
2022/04/13 00:39:54;;;;;;;3.05;1.05;;;20.30;99.90;;;;;;5073441;28;20184;-75
2022/04/13 00:42:24;;;;;;;1.67;0.80;;;20.50;99.90;;;;;;5074197;28;20193;-71
2022/04/13 00:44:55;;;;;;;2.97;1.00;;;20.50;99.90;;;;;;5073988;28;20193;-75
2022/04/13 00:47:25;;;;;;;1.40;0.80;;;20.50;99.90;;;;;;5074041;28;20185;-75
2022/04/13 00:49:58;;;;;;;4.25;1.10;;;20.50;99.90;;;;;;5072781;28;20215;-78
2022/04/13 00:52:32;;;;;;;2.80;1.00;;;20.60;99.90;;;;;;5068925;28;20212;-73
2022/04/13 00:55:04;;;;;;;2.00;0.70;;;20.60;99.90;;;;;;5073380;28;20184;-71
2022/04/13 00:57:37;;;;;;;3.30;0.90;;;20.50;99.90;;;;;;5073731;28;20188;-78
2022/04/13 01:00:09;;;;;;;3.10;1.00;;;20.40;99.90;;;;;;5062012;28;20254;-72
2022/04/13 01:02:40;;;;;;;3.03;1.00;;;20.30;99.90;;;;;;5068664;28;20258;-72
2022/04/13 01:05:14;;;;;;;2.55;0.77;;;20.30;99.90;;;;;;5072078;28;20196;-73
2022/04/13 01:07:45;;;;;;;2.67;0.77;;;20.30;99.90;;;;;;5072639;28;20592;-71
2022/04/13 01:10:16;;;;;;;2.80;0.95;;;20.30;99.90;;;;;;5069876;28;20266;-77
2022/04/13 01:12:47;;;;;;;2.97;0.80;;;20.50;99.90;;;;;;5071447;28;20208;-72
2022/04/13 01:15:18;;;;;;;2.78;0.82;;;20.70;99.90;;;;;;5072786;28;20185;-72
2022/04/13 01:17:48;;;;;;;3.90;0.80;;;21.10;99.90;;;;;;5072642;28;20254;-71
2022/04/13 01:20:22;;;;;;;5.90;0.90;;;21.20;99.90;;;;;;5065496;28;20193;-72
2022/04/13 01:22:54;;;;;;;2.15;0.68;;;21.10;99.90;;;;;;5073008;28;20185;-71
2022/04/13 01:25:25;;;;;;;3.70;0.70;;;21.00;99.90;;;;;;5065161;28;20181;-74
2022/04/13 01:27:55;;;;;;;2.95;0.70;;;20.80;99.90;;;;;;5073060;28;20185;-71
2022/04/13 01:30:27;;;;;;;2.72;0.50;;;20.60;99.90;;;;;;5062545;28;20213;-71
2022/04/13 01:32:58;;;;;;;2.20;0.80;;;20.50;99.90;;;;;;5071595;28;20185;-71
2022/04/13 01:35:28;;;;;;;1.67;0.70;;;20.40;99.90;;;;;;5071105;28;20181;-72
2022/04/13 01:38:01;;;;;;;5.30;0.73;;;20.40;99.90;;;;;;5069894;28;20189;-71
2022/04/13 01:40:32;;;;;;;2.70;0.85;;;20.40;99.90;;;;;;5066501;28;20251;-71
2022/04/13 01:43:02;;;;;;;1.50;0.90;;;20.50;99.90;;;;;;5073009;28;20181;-71
2022/04/13 01:45:33;;;;;;;1.83;0.70;;;20.60;99.90;;;;;;5065146;28;20189;-71
2022/04/13 01:48:04;;;;;;;3.03;1.00;;;20.60;99.90;;;;;;5073143;28;20238;-71
2022/04/13 01:50:34;;;;;;;2.13;0.70;;;20.70;99.90;;;;;;5064993;28;20262;-72
2022/04/13 01:53:07;;;;;;;2.88;0.80;;;20.70;99.90;;;;;;5071205;28;20232;-71
2022/04/13 01:55:37;;;;;;;2.78;0.82;;;20.60;99.90;;;;;;5065138;28;20234;-72
2022/04/13 01:58:08;;;;;;;3.47;1.00;;;20.50;99.90;;;;;;5072747;28;20189;-72
2022/04/13 02:00:39;;;;;;;2.33;0.90;;;20.70;99.90;;;;;;5064844;28;20192;-75
2022/04/13 02:03:10;;;;;;;6.72;1.02;;;20.80;99.90;;;;;;5064311;28;20213;-72
2022/04/13 02:05:40;;;;;;;1.48;0.70;;;20.80;99.90;;;;;;5068949;28;20471;-71
2022/04/13 02:08:13;;;;;;;4.38;0.88;;;20.80;99.90;;;;;;5072216;28;20712;-71
2022/04/13 02:10:44;;;;;;;3.67;1.08;;;20.80;99.90;;;;;;5069872;28;20209;-73
2022/04/13 02:13:15;;;;;;;1.48;0.70;;;20.80;99.90;;;;;;5072005;28;20239;-72
2022/04/13 02:15:46;;;;;;;1.55;0.60;;;20.70;99.90;;;;;;5071823;28;20189;-74
2022/04/13 02:18:16;;;;;;;3.40;0.73;;;20.80;99.90;;;;;;5071949;28;20238;-78
2022/04/13 02:20:47;;;;;;;1.40;0.70;;;21.00;99.90;;;;;;5071886;28;20234;-77
2022/04/13 02:23:20;;;;;;;1.50;0.80;;;21.10;99.90;;;;;;5067983;28;20189;-72
2022/04/13 02:25:50;;;;;;;2.17;0.77;;;21.20;99.90;;;;;;5075329;28;20187;-72
2022/04/13 02:28:21;;;;;;;0.73;0.70;;;21.10;99.90;;;;;;5076037;28;20257;-71
2022/04/13 02:30:51;;;;;;;1.52;0.70;;;21.00;99.90;;;;;;5074650;28;20213;-71
2022/04/13 02:33:22;;;;;;;1.83;0.68;;;20.80;99.90;;;;;;5076559;28;20189;-71
2022/04/13 02:35:54;;;;;;;2.83;0.90;;;20.70;99.90;;;;;;5076471;28;20280;-72
2022/04/13 02:38:26;;;;;;;1.77;0.68;;;20.70;99.90;;;;;;5074419;28;20222;-71
2022/04/13 02:40:57;;;;;;;1.10;0.50;;;20.70;99.90;;;;;;5075484;28;20241;-71
2022/04/13 02:43:28;;;;;;;1.02;0.40;;;20.70;99.90;;;;;;5071400;28;20532;-71
2022/04/13 02:45:59;;;;;;;0.70;0.43;;;20.80;99.90;;;;;;5075979;28;20195;-71
2022/04/13 02:48:29;;;;;;;0.50;0.50;;;20.90;99.90;;;;;;5076292;28;20281;-71
2022/04/13 02:51:00;;;;;;;1.85;0.70;;;21.10;99.90;;;;;;5075399;28;21241;-72
2022/04/13 02:53:33;;;;;;;1.10;0.80;;;21.20;99.90;;;;;;5072438;28;20228;-71
2022/04/13 02:56:03;;;;;;;1.60;0.80;;;21.30;99.90;;;;;;5075648;28;20251;-71
2022/04/13 02:58:34;;;;;;;0.85;0.75;;;21.20;99.90;;;;;;5075053;28;20197;-72
2022/04/13 03:01:06;;;;;;;1.42;0.85;;;21.00;99.90;;;;;;5075989;28;20193;-71
2022/04/13 03:03:37;;;;;;;1.23;0.90;;;20.90;99.90;;;;;;5075925;28;20204;-71
2022/04/13 03:06:07;;;;;;;2.88;0.68;;;21.00;99.90;;;;;;5075019;28;20181;-71
2022/04/13 03:08:40;;;;;;;1.15;0.70;;;21.10;99.90;;;;;;5075831;28;20635;-71
2022/04/13 03:11:11;;;;;;;1.25;0.70;;;21.00;99.90;;;;;;5075050;28;20300;-70
2022/04/13 03:13:42;;;;;;;4.03;0.85;;;21.00;99.90;;;;;;5075231;28;20217;-71
2022/04/13 03:16:12;;;;;;;3.80;1.00;;;20.90;99.90;;;;;;5075797;28;20201;-71
2022/04/13 03:18:43;;;;;;;2.88;0.82;;;20.80;99.90;;;;;;5074608;28;20652;-71
2022/04/13 03:21:13;;;;;;;4.60;1.15;;;20.70;99.90;;;;;;5075462;28;20197;-71
2022/04/13 03:23:46;;;;;;;1.73;1.00;;;20.60;99.90;;;;;;5075825;28;20185;-71
2022/04/13 03:26:17;;;;;;;1.75;0.77;;;20.50;99.90;;;;;;5074166;28;20189;-73
2022/04/13 03:28:47;;;;;;;1.83;0.98;;;20.60;99.90;;;;;;5074955;28;20701;-71
2022/04/13 03:31:18;;;;;;;1.95;0.60;;;20.30;99.90;;;;;;5062402;28;20764;-72
2022/04/13 03:33:49;;;;;;;1.65;0.45;;;20.20;99.90;;;;;;5075620;28;20215;-73
2022/04/13 03:36:19;;;;;;;1.42;0.70;;;20.00;99.90;;;;;;5074836;28;20262;-71
2022/04/13 03:38:52;;;;;;;0.52;0.50;;;19.90;99.90;;;;;;5075152;28;20640;-72
2022/04/13 03:41:23;;;;;;;2.10;0.70;;;19.90;99.90;;;;;;5073859;28;20189;-72
2022/04/13 03:43:53;;;;;;;2.90;0.70;;;19.90;99.90;;;;;;5074262;28;20562;-71
2022/04/13 03:46:24;;;;;;;3.22;0.80;;;19.90;99.90;;;;;;5075278;28;20197;-71
2022/04/13 03:48:54;;;;;;;1.73;0.90;;;20.00;99.90;;;;;;5075005;28;20189;-71
2022/04/13 03:51:25;;;;;;;2.28;0.85;;;20.20;99.90;;;;;;5071850;28;20752;-71
2022/04/13 03:53:57;;;;;;;0.98;0.63;;;20.20;99.90;;;;;;5073743;28;20233;-71
2022/04/13 03:56:29;;;;;;;3.10;1.70;;;20.20;99.90;;;;;;5073789;28;20189;-72
2022/04/13 03:59:00;;;;;;;3.47;1.33;;;20.10;99.90;;;;;;5074908;28;20190;-73
2022/04/13 04:01:31;;;;;;;1.05;0.90;;;20.10;99.90;;;;;;5073772;28;20185;-72
2022/04/13 04:04:02;;;;;;;2.40;0.98;;;20.10;99.90;;;;;;5075104;28;20212;-72
2022/04/13 04:06:33;;;;;;;3.20;1.20;;;20.10;99.90;;;;;;5074455;28;20281;-75
2022/04/13 04:09:05;;;;;;;1.58;0.90;;;20.10;99.90;;;;;;5074528;28;20188;-73
2022/04/13 04:11:36;;;;;;;2.00;0.70;;;20.10;99.90;;;;;;5073983;28;20217;-73
2022/04/13 04:14:06;;;;;;;1.50;0.70;;;20.00;99.90;;;;;;5074430;28;20185;-75
2022/04/13 04:16:37;;;;;;;1.88;0.90;;;20.00;99.90;;;;;;5073813;28;20180;-78
2022/04/13 04:19:08;;;;;;;2.40;1.00;;;19.90;99.90;;;;;;5073483;28;20255;-75
2022/04/13 04:21:39;;;;;;;2.83;1.00;;;19.90;99.90;;;;;;5073565;28;20197;-75
2022/04/13 04:24:12;;;;;;;2.05;0.93;;;20.00;99.90;;;;;;5066548;28;20288;-72
2022/04/13 04:26:43;;;;;;;2.92;1.05;;;20.00;99.90;;;;;;5074119;28;20201;-76
2022/04/13 04:29:14;;;;;;;3.28;1.00;;;20.10;99.90;;;;;;5072991;28;20200;-79
2022/04/13 04:31:54;;;;;;;4.45;1.20;;;20.00;99.90;;;;;;5071231;28;20275;-72
2022/04/13 04:34:26;;;;;;;3.45;1.10;;;19.90;99.90;;;;;;5069669;28;20560;-73
2022/04/13 04:36:57;;;;;;;1.67;1.00;;;19.90;99.90;;;;;;5069118;28;20677;-72
2022/04/13 04:39:29;;;;;;;2.03;0.70;;;19.80;99.90;;;;;;5073323;28;20647;-72
2022/04/13 04:42:00;;;;;;;1.98;0.98;;;19.80;99.90;;;;;;5065791;28;20295;-73
2022/04/13 04:44:31;;;;;;;2.00;0.70;;;19.80;99.90;;;;;;5073388;28;20196;-72
2022/04/13 04:47:01;;;;;;;1.40;0.70;;;19.90;99.90;;;;;;5073261;28;20255;-73
2022/04/13 04:49:32;;;;;;;1.00;0.70;;;20.00;99.90;;;;;;5073179;28;20216;-76
2022/04/13 04:52:03;;;;;;;2.28;0.70;;;20.10;99.90;;;;;;5072135;28;20237;-72
2022/04/13 04:54:35;;;;;;;1.33;0.80;;;20.10;99.90;;;;;;5073396;28;20236;-72
2022/04/13 04:57:06;;;;;;;1.58;0.80;;;20.20;99.90;;;;;;5073040;28;20194;-74
2022/04/13 04:59:36;;;;;;;1.27;0.57;;;20.30;99.90;;;;;;5069171;28;20197;-72
2022/04/13 05:02:07;;;;;;;1.05;0.50;;;20.40;99.90;;;;;;5076084;28;20204;-71
2022/04/13 05:04:38;;;;;;;1.52;0.63;;;20.40;99.90;;;;;;5070355;28;20257;-71
2022/04/13 05:07:09;;;;;;;0.50;0.50;;;20.10;99.90;;;;;;5072967;28;20644;-73
2022/04/13 05:09:42;;;;;;;0.40;0.40;;;20.00;99.90;;;;;;5073409;28;20581;-72
2022/04/13 05:12:13;;;;;;;0.75;0.68;;;19.90;99.90;;;;;;5072150;28;20215;-72
2022/04/13 05:14:44;;;;;;;1.80;0.57;;;19.80;99.90;;;;;;5073570;28;20197;-73
2022/04/13 05:17:15;;;;;;;0.43;0.43;;;20.00;99.90;;;;;;5066992;28;20682;-72
2022/04/13 05:19:45;;;;;;;1.20;0.52;;;20.00;99.90;;;;;;5071730;28;20192;-73
2022/04/13 05:22:17;;;;;;;1.95;1.00;;;20.00;99.90;;;;;;5072150;28;20652;-71
2022/04/13 05:24:51;;;;;;;1.42;0.68;;;20.00;99.90;;;;;;5073012;28;20188;-75
2022/04/13 05:27:21;;;;;;;2.13;0.93;;;19.90;99.90;;;;;;5061331;28;20283;-73
2022/04/13 05:29:52;;;;;;;0.88;0.70;;;19.80;99.90;;;;;;5072949;28;20600;-76
2022/04/13 05:32:22;;;;;;;0.80;0.73;;;19.60;99.90;;;;;;5072397;28;20270;-72
2022/04/13 05:34:59;;;;;;;0.95;0.93;;;19.60;99.90;;;;;;5073302;28;20242;-73
2022/04/13 05:37:30;;;;;;;1.23;0.70;;;19.60;99.90;;;;;;5066240;28;20180;-72
2022/04/13 05:40:02;;;;;;;0.80;0.80;;;19.40;99.90;;;;;;5072025;28;20185;-72
2022/04/13 05:42:35;;;;;;;2.33;1.00;;;19.30;99.90;;;;;;5065330;28;20644;-72
2022/04/13 05:45:06;;;;;;;1.55;1.02;;;19.20;99.90;;;;;;5073002;28;20189;-74
2022/04/13 05:47:37;;;;;;;2.53;1.20;;;19.10;99.90;;;;;;5059417;28;20185;-71
2022/04/13 05:50:08;;;;;;;2.15;1.13;;;18.90;99.90;;;;;;5072021;28;20276;-77
2022/04/13 05:52:39;;;;;;;1.60;1.20;;;18.80;99.90;;;;;;5067207;28;20240;-74
2022/04/13 05:55:12;;;;;;;1.17;0.90;;;18.60;99.90;;;;;;5072389;28;20200;-73
2022/04/13 05:57:43;;;;;;;1.92;1.20;;;18.50;99.90;;;;;;5072121;28;20189;-73
2022/04/13 06:00:15;;;;;;;1.42;1.00;;;18.40;99.90;;;;;;5070323;28;20222;-73
2022/04/13 06:02:45;;;;;;;2.50;1.08;;;18.20;99.90;;;;;;5072201;28;20246;-80
2022/04/13 06:05:16;;;;;;;1.42;1.02;;;18.10;99.90;;;;;;5069319;28;20188;-74
2022/04/13 06:07:47;;;;;;;2.35;1.15;;;18.00;99.90;;;;;;5072252;28;20193;-73
2022/04/13 06:10:19;;;;;;;2.03;0.82;;;18.00;99.90;;;;;;5071619;28;20197;-76
2022/04/13 06:12:50;;;;;;;3.78;0.90;;;17.80;99.90;;;;;;5071591;28;20235;-75
2022/04/13 06:15:21;;;;;;;3.03;0.85;;;17.70;99.90;;;;;;5070669;28;20250;-72
2022/04/13 06:17:51;;;;;;;2.42;0.95;;;17.70;99.90;;;;;;5072112;28;20317;-86
2022/04/13 06:20:22;;;;;;;1.75;0.70;;;17.60;99.90;;;;;;5070561;28;20185;-84
2022/04/13 06:22:53;;;;;;;2.17;0.77;;;17.60;99.90;;;;;;5072698;28;20191;-79
2022/04/13 06:25:26;;;;;;;1.58;0.60;;;17.60;99.90;;;;;;5072223;28;20200;-85
2022/04/13 06:27:56;;;;;;;2.78;0.70;;;17.50;99.90;;;;;;5071229;28;20263;-86
2022/04/13 06:30:27;;;;;;;2.55;0.70;;;17.50;99.90;;;;;;5069320;28;20193;-82
2022/04/13 06:32:58;;;;;;;2.45;1.15;;;17.40;99.90;;;;;;5070720;28;20196;-71
2022/04/13 06:35:28;;;;;;;1.85;1.00;;;17.50;99.90;;;;;;5067241;28;20193;-71
2022/04/13 06:37:59;;;;;;;4.55;0.90;;;17.50;99.90;;;;;;5068592;28;20189;-72
2022/04/13 06:40:33;;;;;;;2.30;1.00;;;17.50;99.90;;;;;;5063465;28;20201;-72
2022/04/13 06:43:03;;;;;;;2.38;0.95;;;17.60;99.90;;;;;;5068873;28;20193;-72
2022/04/13 06:45:36;;;;;;;2.42;1.00;;;17.70;99.90;;;;;;5060534;28;20202;-72
2022/04/13 06:48:07;;;;;;;11.75;9.05;;;17.70;99.90;;;;;;5069557;28;20251;-72
2022/04/13 06:50:38;;;;;;;20.95;16.52;;;17.80;99.90;;;;;;5064046;28;20430;-72
2022/04/13 06:53:09;;;;;;;5.45;1.90;;;17.80;99.90;;;;;;5065854;28;20224;-71
2022/04/13 06:55:41;;;;;;;3.83;1.13;;;17.80;99.90;;;;;;5067858;28;20222;-71
2022/04/13 06:58:12;;;;;;;2.65;0.80;;;17.70;99.90;;;;;;5062866;28;20681;-72
2022/04/13 07:00:43;;;;;;;2.80;0.90;;;17.60;99.90;;;;;;5063964;28;20717;-72
2022/04/13 07:03:14;;;;;;;2.58;0.90;;;17.50;99.90;;;;;;5061789;28;20775;-73
2022/04/13 07:05:45;;;;;;;1.67;0.70;;;17.50;99.90;;;;;;5069756;28;20672;-71
2022/04/13 07:08:15;;;;;;;2.72;0.80;;;17.50;99.90;;;;;;5067916;28;20205;-77
2022/04/13 07:10:48;;;;;;;4.03;1.00;;;17.40;99.90;;;;;;5066622;28;20660;-77
2022/04/13 07:13:18;;;;;;;2.30;0.70;;;17.40;99.90;;;;;;5065979;28;20203;-71
2022/04/13 07:15:49;;;;;;;2.28;0.90;;;17.40;99.90;;;;;;5068692;28;20193;-71
2022/04/13 07:18:20;;;;;;;1.00;0.50;;;17.40;99.90;;;;;;5070128;28;20732;-75
2022/04/13 07:20:51;;;;;;;1.77;0.50;;;17.30;99.90;;;;;;5067666;28;20216;-79
2022/04/13 07:23:21;;;;;;;1.70;0.73;;;17.20;99.90;;;;;;5068454;28;20725;-86
2022/04/13 07:25:54;;;;;;;0.98;0.60;;;17.30;99.90;;;;;;5069660;28;20201;-76
2022/04/13 07:28:24;;;;;;;2.90;0.52;;;17.30;99.90;;;;;;5069129;28;20200;-72
2022/04/13 07:30:55;;;;;;;2.08;0.70;;;17.30;99.90;;;;;;5067599;28;20201;-75
2022/04/13 07:33:25;;;;;;;2.13;0.70;;;17.20;99.90;;;;;;5065644;28;20193;-72
2022/04/13 07:35:56;;;;;;;1.25;0.65;;;17.20;99.90;;;;;;5066532;28;20201;-72
2022/04/13 07:38:27;;;;;;;3.08;0.90;;;17.20;99.90;;;;;;5068768;28;20200;-71
2022/04/13 07:41:01;;;;;;;1.63;0.70;;;17.20;99.90;;;;;;5066098;28;20247;-73
2022/04/13 07:43:32;;;;;;;2.55;0.80;;;17.20;99.90;;;;;;5062246;28;20259;-74
2022/04/13 07:46:03;;;;;;;1.20;0.73;;;17.20;99.90;;;;;;5070274;28;20189;-76
2022/04/13 07:48:34;;;;;;;162.50;81.95;;;17.20;99.90;;;;;;5064919;28;20270;-71
2022/04/13 07:51:05;;;;;;;203.10;105.10;;;17.20;99.90;;;;;;5067094;28;20221;-73
2022/04/13 07:53:35;;;;;;;42.75;27.42;;;17.20;99.90;;;;;;5069287;28;20479;-71
2022/04/13 07:56:08;;;;;;;9.40;5.18;;;17.20;99.90;;;;;;5070574;28;20262;-74
2022/04/13 07:58:39;;;;;;;3.75;2.45;;;17.20;99.90;;;;;;5065200;28;20197;-79
2022/04/13 08:01:10;;;;;;;4.70;2.35;;;17.20;99.90;;;;;;5066430;28;20660;-85
2022/04/13 08:03:40;;;;;;;2.45;1.48;;;17.20;99.90;;;;;;5068718;28;20212;-82
2022/04/13 08:06:12;;;;;;;9.85;5.95;;;17.20;99.90;;;;;;5068582;28;21781;-83
2022/04/13 08:08:43;;;;;;;7.28;4.07;;;17.20;99.90;;;;;;5066342;28;20193;-76
2022/04/13 08:11:15;;;;;;;4.15;2.28;;;17.20;99.90;;;;;;5065139;28;20241;-82
2022/04/13 08:13:46;;;;;;;2.78;1.58;;;17.20;99.90;;;;;;5068424;28;20193;-86
2022/04/13 08:16:16;;;;;;;4.18;1.42;;;17.20;99.90;;;;;;5066209;28;20200;-79
2022/04/13 08:18:47;;;;;;;2.03;1.33;;;17.20;99.90;;;;;;5067906;28;20532;-86
2022/04/13 08:21:18;;;;;;;2.28;1.50;;;17.20;99.90;;;;;;5069182;28;20200;-81
2022/04/13 08:23:49;;;;;;;3.85;1.63;;;17.20;99.90;;;;;;5068770;28;20208;-91
2022/04/13 08:26:21;;;;;;;2.33;1.10;;;17.20;99.90;;;;;;5060543;28;20224;-88
2022/04/13 08:28:52;;;;;;;2.83;1.10;;;17.20;99.90;;;;;;5063971;28;20205;-83
2022/04/13 08:31:22;;;;;;;2.70;1.30;;;17.20;99.90;;;;;;5062551;28;20214;-84
2022/04/13 08:33:53;;;;;;;1.77;1.10;;;17.20;99.90;;;;;;5070356;28;20263;-80
2022/04/13 08:36:24;;;;;;;2.45;1.00;;;17.20;99.90;;;;;;5071067;28;20267;-86
2022/04/13 08:38:54;;;;;;;3.10;1.10;;;17.20;99.90;;;;;;5063582;28;20598;-83
2022/04/13 08:41:42;;;;;;;3.03;1.08;;;17.10;99.90;;;;;;5069808;28;20213;-82
2022/04/13 08:44:18;;;;;;;2.70;1.13;;;17.10;99.90;;;;;;5065242;28;20200;-77
2022/04/13 08:46:55;;;;;;;1.40;1.10;;;17.10;99.90;;;;;;5068865;28;20189;-79
2022/04/13 08:49:26;;;;;;;2.45;1.13;;;17.10;99.90;;;;;;5064071;28;20189;-82
2022/04/13 08:52:00;;;;;;;1.83;1.08;;;17.10;99.90;;;;;;5066654;28;20240;-85
2022/04/13 08:54:34;;;;;;;1.92;1.23;;;17.00;99.90;;;;;;5065713;28;20228;-79
2022/04/13 08:57:14;;;;;;;2.90;1.33;;;17.00;99.90;;;;;;5064241;28;20668;-81
2022/04/13 08:59:53;;;;;;;2.55;1.45;;;17.00;99.90;;;;;;5066629;28;20204;-85
2022/04/13 09:02:36;;;;;;;1.98;1.30;;;17.00;99.90;;;;;;5066417;28;20200;-72
2022/04/13 09:05:12;;;;;;;4.43;1.52;;;17.00;99.90;;;;;;5063249;28;20197;-72
2022/04/13 09:07:48;;;;;;;3.97;1.73;;;17.00;99.90;;;;;;5065320;28;20197;-74
2022/04/13 09:10:22;;;;;;;3.38;1.40;;;16.90;99.90;;;;;;5066904;28;20678;-73
2022/04/13 09:12:56;;;;;;;4.60;1.50;;;16.90;99.90;;;;;;5068138;28;20297;-71
2022/04/13 09:15:28;;;;;;;2.97;1.77;;;16.90;99.90;;;;;;5066632;28;20664;-72
2022/04/13 09:17:59;;;;;;;2.85;1.77;;;16.90;99.90;;;;;;5066447;28;20200;-72
2022/04/13 09:20:29;;;;;;;2.83;1.90;;;16.90;99.90;;;;;;5070438;28;20679;-72
2022/04/13 09:23:01;;;;;;;4.13;1.77;;;16.90;99.90;;;;;;5068354;28;20197;-72
2022/04/13 09:25:33;;;;;;;3.20;1.90;;;16.90;99.90;;;;;;5070474;28;20262;-72
2022/04/13 09:28:06;;;;;;;2.97;1.98;;;16.90;99.90;;;;;;5069816;28;20655;-72
2022/04/13 09:30:37;;;;;;;4.15;1.90;;;16.90;99.90;;;;;;5070578;28;20562;-71
2022/04/13 09:33:08;;;;;;;3.58;1.73;;;16.80;99.90;;;;;;5068263;28;20259;-72
2022/04/13 09:35:39;;;;;;;2.85;1.70;;;16.80;99.90;;;;;;5070052;28;20201;-73
2022/04/13 09:38:10;;;;;;;3.35;1.70;;;16.90;99.90;;;;;;5060753;28;20660;-72
2022/04/13 09:40:42;;;;;;;2.13;1.60;;;16.80;99.90;;;;;;5069157;28;20254;-72
2022/04/13 09:43:16;;;;;;;2.25;1.60;;;16.80;99.90;;;;;;5068396;28;20186;-73
2022/04/13 09:45:47;;;;;;;3.78;1.75;;;16.80;99.90;;;;;;5073244;28;20201;-72
2022/04/13 09:48:18;;;;;;;3.35;1.80;;;16.80;99.90;;;;;;5071664;28;20629;-73
2022/04/13 09:50:50;;;;;;;3.92;1.80;;;16.80;99.90;;;;;;5069792;28;20621;-72
2022/04/13 09:53:22;;;;;;;3.40;2.00;;;16.80;99.90;;;;;;5069472;28;20248;-72
2022/04/13 09:55:54;;;;;;;3.75;2.03;;;16.80;99.90;;;;;;5072022;28;20189;-73
2022/04/13 09:58:29;;;;;;;2.92;1.70;;;16.90;99.90;;;;;;5061737;28;20208;-72
2022/04/13 10:01:03;;;;;;;2.70;1.50;;;16.80;99.90;;;;;;5070669;28;20188;-72
2022/04/13 10:03:33;;;;;;;2.63;1.50;;;16.80;99.90;;;;;;5064233;28;20675;-72
2022/04/13 10:06:04;;;;;;;3.80;1.55;;;16.70;99.90;;;;;;5068035;28;20250;-72
2022/04/13 10:08:35;;;;;;;3.83;1.40;;;16.80;99.90;;;;;;5068069;28;20247;-72
2022/04/13 10:11:12;;;;;;;3.55;1.33;;;16.80;99.90;;;;;;5069189;28;20284;-72
2022/04/13 10:13:45;;;;;;;3.70;1.35;;;16.80;99.90;;;;;;5069810;28;20307;-71
2022/04/13 10:16:16;;;;;;;2.85;1.23;;;16.80;99.90;;;;;;5068543;28;20192;-75
2022/04/13 10:18:57;;;;;;;2.90;1.23;;;16.80;99.90;;;;;;5070932;28;20189;-73
2022/04/13 10:21:43;;;;;;;2.85;1.40;;;16.80;99.90;;;;;;5069263;28;20196;-73
2022/04/13 10:24:25;;;;;;;3.65;1.38;;;16.80;99.90;;;;;;5070730;28;20211;-74
2022/04/13 10:27:05;;;;;;;6.45;1.50;;;16.80;99.90;;;;;;5064550;28;20189;-73
2022/04/13 10:29:39;;;;;;;2.38;1.17;;;16.80;99.90;;;;;;5067582;28;20192;-72
2022/04/13 10:32:11;;;;;;;2.63;1.33;;;16.80;99.90;;;;;;5068692;28;20208;-83
2022/04/13 10:34:43;;;;;;;4.85;1.33;;;16.80;99.90;;;;;;5070094;28;20201;-72
2022/04/13 10:37:15;;;;;;;2.42;1.40;;;16.80;99.90;;;;;;5071154;28;20254;-72
2022/04/13 10:39:46;;;;;;;2.28;1.10;;;16.80;99.90;;;;;;5067380;28;20213;-75
2022/04/13 10:42:18;;;;;;;2.13;1.20;;;16.90;99.90;;;;;;5067910;28;20552;-77
2022/04/13 10:44:53;;;;;;;3.35;1.00;;;16.80;99.90;;;;;;5070802;28;20197;-72
2022/04/13 10:47:33;;;;;;;3.05;1.13;;;16.80;99.90;;;;;;5075520;28;20196;-72
2022/04/13 10:50:05;;;;;;;2.65;1.13;;;16.90;99.90;;;;;;5059653;28;20196;-76
2022/04/13 10:52:41;;;;;;;2.83;1.20;;;16.90;99.90;;;;;;5069624;28;20279;-74
2022/04/13 10:55:14;;;;;;;2.38;1.10;;;17.00;99.90;;;;;;5072920;28;20207;-72
2022/04/13 10:57:48;;;;;;;3.08;1.13;;;17.00;99.90;;;;;;5072218;28;20675;-72
2022/04/13 11:00:23;;;;;;;4.40;1.27;;;17.00;99.90;;;;;;5075317;28;20203;-72
2022/04/13 11:02:58;;;;;;;3.03;1.23;;;17.00;99.90;;;;;;5073112;28;20200;-72
2022/04/13 11:05:29;;;;;;;2.53;1.00;;;17.00;99.90;;;;;;5073684;28;20205;-72
2022/04/13 11:08:13;;;;;;;1.58;1.00;;;17.00;99.90;;;;;;5071431;28;20197;-72
2022/04/13 11:10:47;;;;;;;1.38;0.98;;;17.00;99.90;;;;;;5065161;28;20201;-73
2022/04/13 11:13:19;;;;;;;3.63;1.30;;;17.00;99.90;;;;;;5071819;28;20216;-75
2022/04/13 11:15:52;;;;;;;1.90;1.10;;;17.00;99.90;;;;;;5071598;28;20575;-72
2022/04/13 11:18:23;;;;;;;2.42;1.08;;;17.00;99.90;;;;;;5074710;28;20242;-74
2022/04/13 11:21:10;;;;;;;1.67;1.00;;;17.00;99.90;;;;;;5070150;28;20199;-73
2022/04/13 11:23:51;;;;;;;2.60;1.20;;;17.00;99.90;;;;;;5073732;28;20200;-72
2022/04/13 11:26:29;;;;;;;2.40;1.08;;;17.10;99.90;;;;;;5071234;28;20201;-78
2022/04/13 11:29:21;;;;;;;1.58;1.20;;;17.00;99.90;;;;;;5062519;28;20199;-74
2022/04/13 11:32:13;;;;;;;3.15;1.35;;;17.00;99.90;;;;;;5068352;28;20601;-79
2022/04/13 11:34:49;;;;;;;4.70;1.30;;;17.00;99.90;;;;;;5072245;28;20197;-79
2022/04/13 11:37:21;;;;;;;3.22;1.20;;;17.00;99.90;;;;;;5073115;28;20217;-73
2022/04/13 11:39:59;;;;;;;1.98;1.20;;;17.00;99.90;;;;;;5071617;28;20206;-86
2022/04/13 11:42:54;;;;;;;3.05;1.30;;;16.90;99.90;;;;;;5066053;28;20203;-73
2022/04/13 11:45:30;;;;;;;4.78;1.25;;;16.80;99.90;;;;;;5065624;28;20232;-84
2022/04/13 11:48:08;;;;;;;3.38;1.10;;;16.80;99.90;;;;;;5057924;28;20801;-72
2022/04/13 11:50:40;;;;;;;3.17;1.52;;;16.70;99.90;;;;;;5064825;28;20208;-75
2022/04/13 11:53:14;;;;;;;2.03;1.30;;;16.70;99.90;;;;;;5053950;28;20598;-77
2022/04/13 11:55:48;;;;;;;2.58;1.48;;;16.80;99.90;;;;;;5064759;28;20201;-74
2022/04/13 11:58:26;;;;;;;2.10;1.25;;;16.70;99.90;;;;;;5070421;28;20288;-76
2022/04/13 12:01:11;;;;;;;2.47;1.50;;;16.70;99.90;;;;;;5072554;28;20200;-74
2022/04/13 12:03:45;;;;;;;3.30;1.50;;;16.70;99.90;;;;;;5065561;28;20283;-74
2022/04/13 12:06:18;;;;;;;2.28;1.50;;;16.80;99.90;;;;;;5070958;28;20198;-75
2022/04/13 12:08:50;;;;;;;2.25;1.50;;;16.80;99.90;;;;;;5073745;28;20639;-75
2022/04/13 12:11:21;;;;;;;3.03;1.60;;;16.80;99.90;;;;;;5068535;28;20648;-74
2022/04/13 12:13:54;;;;;;;3.20;1.58;;;16.80;99.90;;;;;;5071272;28;20209;-75
2022/04/13 12:16:27;;;;;;;1.92;1.30;;;16.80;99.90;;;;;;5065176;28;20217;-72
2022/04/13 12:19:04;;;;;;;3.10;1.58;;;16.80;99.90;;;;;;5073510;28;20193;-72
2022/04/13 12:21:36;;;;;;;4.47;1.70;;;16.70;99.90;;;;;;5066721;28;20642;-72
2022/04/13 12:24:08;;;;;;;3.53;1.83;;;16.80;99.90;;;;;;5071425;28;20205;-77
2022/04/13 12:26:39;;;;;;;2.50;1.80;;;16.80;99.90;;;;;;5072726;28;20205;-76
2022/04/13 12:29:20;;;;;;;3.20;2.00;;;16.70;99.90;;;;;;5071729;28;20203;-72
2022/04/13 12:31:53;;;;;;;3.28;1.88;;;16.70;99.90;;;;;;5067556;28;20200;-73
2022/04/13 12:34:26;;;;;;;3.30;2.05;;;16.60;99.90;;;;;;5067570;28;20216;-79
2022/04/13 12:37:01;;;;;;;2.80;1.80;;;16.60;99.90;;;;;;5067164;28;20196;-77
2022/04/13 12:39:32;;;;;;;3.08;1.88;;;16.60;99.90;;;;;;5067068;28;20204;-72
2022/04/13 12:42:03;;;;;;;2.75;1.90;;;16.60;99.90;;;;;;5067388;28;20200;-73
2022/04/13 12:44:34;;;;;;;4.43;1.98;;;16.70;99.90;;;;;;5068611;28;20205;-73
2022/04/13 12:47:08;;;;;;;4.75;2.20;;;16.70;99.90;;;;;;5066132;28;20301;-73
2022/04/13 12:49:41;;;;;;;2.30;1.80;;;16.60;99.90;;;;;;5066433;28;20201;-77
2022/04/13 12:52:12;;;;;;;3.78;1.85;;;16.60;99.90;;;;;;5067161;28;20570;-77
2022/04/13 12:54:43;;;;;;;4.07;1.70;;;16.60;99.90;;;;;;5072312;28;20294;-76
2022/04/13 12:57:13;;;;;;;3.10;1.65;;;16.60;99.90;;;;;;5072332;28;20188;-73
2022/04/13 12:59:46;;;;;;;2.97;1.65;;;16.50;99.90;;;;;;5073325;28;20609;-82
2022/04/13 13:02:22;;;;;;;1.98;1.60;;;16.50;99.90;;;;;;5073854;28;20197;-80
2022/04/13 13:04:55;;;;;;;3.10;1.60;;;16.50;99.90;;;;;;5073501;28;20215;-72
2022/04/13 13:07:33;;;;;;;3.50;1.75;;;16.40;99.90;;;;;;5073659;28;20215;-78
2022/04/13 13:10:03;;;;;;;2.63;1.80;;;16.40;99.90;;;;;;5065981;28;20188;-76
2022/04/13 13:12:34;;;;;;;3.78;1.63;;;16.40;99.90;;;;;;5073107;28;20189;-72